createdAt,value
2022-10-23T00:03:26.547Z,16.02
2022-10-23T00:08:28.677Z,15.32
2022-10-23T00:13:31.007Z,16.40
2022-10-23T00:18:33.850Z,14.38
2022-10-23T00:23:36.109Z,15.70
2022-10-23T00:28:38.749Z,15.05
2022-10-23T00:33:42.053Z,12.23
2022-10-23T00:38:45.153Z,16.13
2022-10-23T00:44:01.615Z,15.65
2022-10-23T00:49:05.690Z,18.70
2022-10-23T00:54:23.542Z,15.00
2022-10-23T00:59:27.772Z,17.17
2022-10-23T01:04:30.978Z,17.25
2022-10-23T01:09:42.606Z,13.45
2022-10-23T01:15:03.163Z,13.55
2022-10-23T01:20:25.634Z,16.38
2022-10-23T01:25:52.410Z,21.85
2022-10-23T01:30:58.364Z,13.15
2022-10-23T01:36:12.593Z,19.20
2022-10-23T01:41:21.491Z,13.45
2022-10-23T01:46:26.300Z,20.00
2022-10-23T01:51:31.336Z,15.48
2022-10-23T01:56:42.246Z,20.73
2022-10-23T02:01:48.849Z,23.05
2022-10-23T02:06:51.450Z,15.48
2022-10-23T02:12:25.253Z,15.98
2022-10-23T02:18:12.120Z,17.10
2022-10-23T02:23:28.053Z,17.75
2022-10-23T02:28:40.657Z,18.60
2022-10-23T02:33:47.251Z,21.25
2022-10-23T02:38:49.734Z,21.48
2022-10-23T02:44:10.358Z,11.98
2022-10-23T02:49:20.505Z,17.33
2022-10-23T02:54:42.035Z,19.42
2022-10-23T02:59:47.702Z,25.33
2022-10-23T03:04:54.148Z,17.90
2022-10-23T03:09:56.607Z,20.02
2022-10-23T03:14:58.967Z,15.95
2022-10-23T03:20:01.141Z,16.38
2022-10-23T03:25:03.658Z,14.10
2022-10-23T03:30:08.309Z,10.63
2022-10-23T03:35:13.121Z,16.58
2022-10-23T03:40:15.562Z,11.00
2022-10-23T03:45:17.902Z,10.48
2022-10-23T03:50:20.677Z,12.98
2022-10-23T03:55:23.562Z,15.60
2022-10-23T04:00:27.932Z,15.40
2022-10-23T04:05:30.370Z,15.48
2022-10-23T04:10:34.117Z,10.93
2022-10-23T04:15:36.682Z,12.98
2022-10-23T04:20:39.152Z,18.98
2022-10-23T04:25:41.585Z,11.52
2022-10-23T04:30:44.210Z,15.20
2022-10-23T04:35:47.914Z,13.32
2022-10-23T04:40:50.271Z,20.35
2022-10-23T04:45:56.463Z,32.53
2022-10-23T04:51:02.158Z,30.67
2022-10-23T04:56:24.502Z,14.13
2022-10-23T05:01:36.106Z,12.82
2022-10-23T05:06:41.193Z,12.95
2022-10-23T05:12:06.481Z,15.50
2022-10-23T05:17:14.308Z,17.98
2022-10-23T05:22:18.786Z,14.25
2022-10-23T05:27:23.694Z,9.85
2022-10-23T05:32:31.640Z,13.93
2022-10-23T05:37:37.386Z,15.90
2022-10-23T05:42:54.995Z,11.77
2022-10-23T05:48:17.038Z,14.70
2022-10-23T05:53:56.065Z,10.95
2022-10-23T05:59:10.514Z,12.18
2022-10-23T06:04:30.388Z,12.85
2022-10-23T06:09:53.453Z,15.82
2022-10-23T06:14:56.886Z,13.40
2022-10-23T06:20:16.139Z,9.73
2022-10-23T06:25:33.354Z,18.08
2022-10-23T06:30:40.298Z,14.02
2022-10-23T06:35:46.127Z,15.52
2022-10-23T06:53:28.643Z,15.60
2022-10-23T06:58:45.223Z,22.25
2022-10-23T07:04:43.055Z,17.75
2022-10-23T07:09:53.102Z,15.25
2022-10-23T07:14:59.875Z,14.60
2022-10-23T07:20:02.532Z,11.43
2022-10-23T07:25:05.726Z,14.00
2022-10-23T07:30:13.946Z,9.45
2022-10-23T07:35:24.936Z,9.95
2022-10-23T07:40:38.773Z,11.85
2022-10-23T07:45:46.756Z,18.20
2022-10-23T07:51:04.180Z,7.85
2022-10-23T07:56:18.745Z,11.63
2022-10-23T08:01:56.862Z,13.35
2022-10-23T08:07:05.840Z,9.98
2022-10-23T08:12:15.471Z,10.07
2022-10-23T08:17:19.005Z,7.35
2022-10-23T08:22:37.475Z,8.40
2022-10-23T08:27:40.488Z,8.98
2022-10-23T08:32:43.161Z,5.60
2022-10-23T08:37:47.665Z,6.10
2022-10-23T08:43:22.169Z,6.15
2022-10-23T08:48:51.754Z,4.88
2022-10-23T08:54:55.892Z,9.52
2022-10-23T09:00:12.695Z,3.50
2022-10-23T09:05:25.467Z,6.38
2022-10-23T09:10:51.531Z,8.15
2022-10-23T09:16:03.972Z,4.03
2022-10-23T09:21:10.381Z,5.53
2022-10-23T09:26:18.495Z,6.13
2022-10-23T09:31:21.160Z,4.03
2022-10-23T09:36:29.479Z,5.70
2022-10-23T09:41:37.678Z,5.70
2022-10-23T09:52:08.683Z,6.55
2022-10-23T09:57:32.394Z,1.55
2022-10-23T10:02:36.892Z,5.22
2022-10-23T10:08:04.182Z,8.70
2022-10-23T10:13:34.822Z,2.67
2022-10-23T10:18:47.877Z,3.65
2022-10-23T10:24:12.836Z,7.03
2022-10-23T10:29:52.497Z,2.95
2022-10-23T10:35:19.516Z,6.10
2022-10-23T10:40:35.719Z,1.45
2022-10-23T10:45:52.783Z,3.35
2022-10-23T10:50:59.389Z,4.32
2022-10-23T10:56:19.374Z,2.25
2022-10-23T11:01:28.374Z,3.53
2022-10-23T11:06:36.473Z,1.80
2022-10-23T11:11:41.192Z,4.65
2022-10-23T11:17:10.462Z,3.20
2022-10-23T11:22:34.603Z,3.38
2022-10-23T11:27:42.993Z,2.92
2022-10-23T11:33:17.306Z,3.00
2022-10-23T11:38:30.240Z,5.20
2022-10-23T11:43:55.501Z,4.72
2022-10-23T11:48:58.791Z,3.65
2022-10-23T11:54:16.433Z,2.05
2022-10-23T11:59:29.534Z,3.33
2022-10-23T12:04:45.867Z,3.50
2022-10-23T12:10:01.669Z,3.08
2022-10-23T12:15:20.086Z,4.60
2022-10-23T12:20:39.524Z,1.30
2022-10-23T12:25:57.980Z,4.78
2022-10-23T12:31:31.664Z,1.88
2022-10-23T12:36:45.758Z,6.82
2022-10-23T12:41:48.098Z,4.45
2022-10-23T12:46:54.706Z,2.78
2022-10-23T12:52:04.784Z,4.75
2022-10-23T12:57:26.413Z,4.00
2022-10-23T13:02:33.155Z,3.10
2022-10-23T13:07:44.795Z,3.35
2022-10-23T13:13:02.983Z,2.50
2022-10-23T13:18:07.509Z,2.60
2022-10-23T13:23:33.132Z,2.40
2022-10-23T13:28:43.177Z,3.13
2022-10-23T13:34:09.975Z,5.22
2022-10-23T13:39:12.769Z,4.35
2022-10-23T13:44:17.460Z,31.77
2022-10-23T13:49:20.470Z,12.25
2022-10-23T13:59:30.386Z,10.80
2022-10-23T14:04:32.611Z,4.55
2022-10-23T14:09:34.750Z,5.22
2022-10-23T14:14:37.208Z,7.75
2022-10-23T14:19:39.567Z,15.98
2022-10-23T14:24:41.845Z,10.07
